createdAt,value
2023-03-05T00:00:05.482Z,1.40
2023-03-05T00:02:36.367Z,2.70
2023-03-05T00:05:08.209Z,2.00
2023-03-05T00:07:39.235Z,1.70
2023-03-05T00:10:11.902Z,1.70
2023-03-05T00:12:42.702Z,2.00
2023-03-05T00:15:14.568Z,1.60
2023-03-05T00:17:45.780Z,1.80
2023-03-05T00:20:17.543Z,1.50
2023-03-05T00:22:48.182Z,1.60
2023-03-05T00:25:19.210Z,1.80
2023-03-05T00:27:49.883Z,1.60
2023-03-05T00:30:20.691Z,1.60
2023-03-05T00:32:51.450Z,1.80
2023-03-05T00:35:22.522Z,1.80
2023-03-05T00:37:53.178Z,1.50
2023-03-05T00:40:26.996Z,1.80
2023-03-05T00:45:27.336Z,1.60
2023-03-05T00:47:58.278Z,1.70
2023-03-05T00:50:29.117Z,1.60
2023-03-05T00:52:59.837Z,1.80
2023-03-05T00:55:30.699Z,1.60
2023-03-05T00:58:01.425Z,2.00
2023-03-05T01:00:32.179Z,1.40
2023-03-05T01:03:03.111Z,1.60
2023-03-05T01:05:34.184Z,2.10
2023-03-05T01:08:05.403Z,1.70
2023-03-05T01:10:36.334Z,1.20
2023-03-05T01:13:07.034Z,1.40
2023-03-05T01:15:37.801Z,1.70
2023-03-05T01:18:09.024Z,1.60
2023-03-05T01:20:39.734Z,1.60
2023-03-05T01:23:10.522Z,1.60
2023-03-05T01:25:41.218Z,1.60
2023-03-05T01:28:12.007Z,1.50
2023-03-05T01:30:42.677Z,1.80
2023-03-05T01:33:13.320Z,1.60
2023-03-05T01:35:44.348Z,1.40
2023-03-05T01:38:15.572Z,1.50
2023-03-05T01:40:46.615Z,1.60
2023-03-05T01:43:27.278Z,1.70
2023-03-05T01:46:28.858Z,1.70
2023-03-05T01:49:16.673Z,1.30
2023-03-05T01:51:54.033Z,1.50
2023-03-05T01:54:27.790Z,1.40
2023-03-05T01:57:00.724Z,1.40
2023-03-05T01:59:32.099Z,1.40
2023-03-05T02:02:04.181Z,1.20
2023-03-05T02:04:42.147Z,1.30
2023-03-05T02:07:15.025Z,1.30
2023-03-05T02:09:45.879Z,1.50
2023-03-05T02:12:17.550Z,1.60
2023-03-05T02:14:51.464Z,1.30
2023-03-05T02:19:56.526Z,1.40
2023-03-05T02:22:27.802Z,1.10
2023-03-05T02:24:58.595Z,1.30
2023-03-05T02:27:35.106Z,1.50
2023-03-05T02:30:06.742Z,1.40
2023-03-05T02:32:37.422Z,1.40
2023-03-05T02:35:11.574Z,1.10
2023-03-05T02:37:43.046Z,1.10
2023-03-05T02:40:16.242Z,1.80
2023-03-05T02:42:47.978Z,1.20
2023-03-05T02:45:18.868Z,1.30
2023-03-05T02:47:49.664Z,1.40
2023-03-05T02:50:20.791Z,1.20
2023-03-05T02:52:51.512Z,1.20
2023-03-05T02:55:22.362Z,1.50
2023-03-05T02:57:53.102Z,1.30
2023-03-05T03:00:26.426Z,1.60
2023-03-05T03:02:57.203Z,1.50
2023-03-05T03:05:27.939Z,1.50
2023-03-05T03:07:58.883Z,1.30
2023-03-05T03:10:29.580Z,1.20
2023-03-05T03:13:00.566Z,1.20
2023-03-05T03:15:31.572Z,1.40
2023-03-05T03:18:02.509Z,1.10
2023-03-05T03:20:35.043Z,1.30
2023-03-05T03:23:06.338Z,1.10
2023-03-05T03:25:37.488Z,1.40
2023-03-05T03:28:08.590Z,1.20
2023-03-05T03:30:39.286Z,1.00
2023-03-05T03:33:09.985Z,1.10
2023-03-05T03:35:41.091Z,0.90
2023-03-05T03:38:12.035Z,1.10
2023-03-05T03:40:42.941Z,1.10
2023-03-05T03:43:13.667Z,1.20
2023-03-05T03:45:46.014Z,1.10
2023-03-05T03:48:16.997Z,1.40
2023-03-05T03:50:48.196Z,1.10
2023-03-05T03:53:19.200Z,1.10
2023-03-05T03:55:50.047Z,1.20
2023-03-05T03:58:20.647Z,1.20
2023-03-05T04:00:51.317Z,1.40
2023-03-05T04:03:21.935Z,1.00
2023-03-05T04:05:52.678Z,0.90
2023-03-05T04:08:23.414Z,1.30
2023-03-05T04:10:54.154Z,1.10
2023-03-05T04:13:25.247Z,1.70
2023-03-05T04:15:56.327Z,1.20
2023-03-05T04:18:27.395Z,1.20
2023-03-05T04:20:58.228Z,1.10
2023-03-05T04:23:28.990Z,1.00
2023-03-05T04:25:59.812Z,1.00
2023-03-05T04:28:30.717Z,1.00
2023-03-05T04:31:01.470Z,0.90
2023-03-05T04:33:32.232Z,1.30
2023-03-05T04:36:03.193Z,1.20
2023-03-05T04:38:33.895Z,1.30
2023-03-05T04:41:04.649Z,1.20
2023-03-05T04:43:36.288Z,1.10
2023-03-05T04:46:07.695Z,1.30
2023-03-05T04:48:38.486Z,1.00
2023-03-05T04:51:09.634Z,1.10
2023-03-05T04:53:40.485Z,1.00
2023-03-05T04:56:11.902Z,1.00
2023-03-05T04:58:42.547Z,1.20
2023-03-05T05:01:13.267Z,0.90
2023-03-05T05:03:44.141Z,1.10
2023-03-05T05:06:14.768Z,0.90
2023-03-05T05:08:45.514Z,0.80
2023-03-05T05:11:17.162Z,1.30
2023-03-05T05:13:48.018Z,1.10
2023-03-05T05:16:19.033Z,1.40
2023-03-05T05:18:49.854Z,1.10
2023-03-05T05:21:20.542Z,1.10
2023-03-05T05:23:51.577Z,1.00
2023-03-05T05:26:22.227Z,1.10
2023-03-05T05:28:53.052Z,1.20
2023-03-05T05:31:23.871Z,0.80
2023-03-05T05:33:54.649Z,1.10
2023-03-05T05:36:25.291Z,1.10
2023-03-05T05:38:56.246Z,1.50
2023-03-05T05:41:26.951Z,0.90
2023-03-05T05:43:57.690Z,1.00
2023-03-05T05:46:29.123Z,1.00
2023-03-05T05:49:00.239Z,0.90
2023-03-05T05:51:31.108Z,1.00
2023-03-05T05:54:02.003Z,0.90
2023-03-05T05:56:34.151Z,0.90
2023-03-05T05:59:04.806Z,1.10
2023-03-05T06:01:36.500Z,1.20
2023-03-05T06:04:07.374Z,1.00
2023-03-05T06:06:38.254Z,1.00
2023-03-05T06:09:09.160Z,1.00
2023-03-05T06:11:39.959Z,0.90
2023-03-05T06:14:11.356Z,1.10
2023-03-05T06:16:42.626Z,1.00
2023-03-05T06:19:15.081Z,1.10
2023-03-05T06:21:46.130Z,0.90
2023-03-05T06:24:16.937Z,0.80
2023-03-05T06:26:48.767Z,1.10
2023-03-05T06:29:19.575Z,1.00
2023-03-05T06:31:50.473Z,0.80
2023-03-05T06:34:21.352Z,0.90
2023-03-05T06:36:52.090Z,1.30
2023-03-05T06:39:23.079Z,0.90
2023-03-05T06:41:54.794Z,1.00
2023-03-05T06:44:25.866Z,1.20
2023-03-05T06:46:56.989Z,0.90
2023-03-05T06:49:28.127Z,0.90
2023-03-05T06:51:58.967Z,1.00
2023-03-05T06:54:29.814Z,0.80
2023-03-05T06:57:00.652Z,1.20
2023-03-05T06:59:31.620Z,1.00
2023-03-05T07:02:02.587Z,0.80
2023-03-05T07:04:33.628Z,0.90
2023-03-05T07:07:06.973Z,0.90
2023-03-05T07:09:43.252Z,0.90
2023-03-05T07:12:14.679Z,0.90
2023-03-05T07:14:45.537Z,1.00
2023-03-05T07:17:16.581Z,0.80
2023-03-05T07:19:47.483Z,0.90
2023-03-05T07:22:18.369Z,1.00
2023-03-05T07:24:49.356Z,1.20
2023-03-05T07:27:20.155Z,1.00
2023-03-05T07:29:51.049Z,0.80
2023-03-05T07:32:21.893Z,0.90
2023-03-05T07:34:52.686Z,1.00
2023-03-05T07:37:23.505Z,1.00
2023-03-05T07:39:54.461Z,0.90
2023-03-05T07:42:26.122Z,1.20
2023-03-05T07:44:56.907Z,1.00
2023-03-05T07:47:28.106Z,0.80
2023-03-05T07:49:58.996Z,1.10
2023-03-05T07:52:29.773Z,0.90
2023-03-05T07:55:00.717Z,1.00
2023-03-05T07:57:31.982Z,1.00
2023-03-05T08:00:03.168Z,1.00
2023-03-05T08:02:34.000Z,1.00
2023-03-05T08:05:05.460Z,0.90
2023-03-05T08:07:36.459Z,0.90
2023-03-05T08:10:09.653Z,0.90
2023-03-05T08:12:40.462Z,0.80
2023-03-05T08:15:13.130Z,0.70
2023-03-05T08:17:44.370Z,0.90
2023-03-05T08:20:16.184Z,0.80
2023-03-05T08:22:47.536Z,0.80
2023-03-05T08:25:18.877Z,0.80
2023-03-05T08:27:50.760Z,0.90
2023-03-05T08:30:27.539Z,0.80
2023-03-05T08:32:58.579Z,1.00
2023-03-05T08:35:29.468Z,1.00
2023-03-05T08:38:00.756Z,0.70
2023-03-05T08:40:31.603Z,0.90
2023-03-05T08:43:02.642Z,0.80
2023-03-05T08:45:33.691Z,0.80
2023-03-05T08:48:04.729Z,1.10
2023-03-05T08:50:38.905Z,1.00
2023-03-05T08:53:09.889Z,0.70
2023-03-05T08:55:43.252Z,1.20
2023-03-05T08:58:14.866Z,0.80
2023-03-05T09:00:46.102Z,0.90
2023-03-05T09:03:16.901Z,0.70
2023-03-05T09:05:48.048Z,0.60
2023-03-05T09:08:19.350Z,0.90
2023-03-05T09:10:50.231Z,0.90
2023-03-05T09:13:21.118Z,0.70
2023-03-05T09:15:58.688Z,0.80
2023-03-05T09:18:29.675Z,0.50
2023-03-05T09:21:05.082Z,0.60
2023-03-05T09:23:36.194Z,0.40
2023-03-05T09:26:08.632Z,0.70
2023-03-05T09:28:39.746Z,0.70
2023-03-05T09:31:11.689Z,0.60
2023-03-05T09:33:43.392Z,0.40
2023-03-05T09:36:22.618Z,0.80
2023-03-05T09:38:54.053Z,0.50
2023-03-05T09:41:37.087Z,0.70
2023-03-05T09:44:21.141Z,0.70
2023-03-05T09:46:56.025Z,0.90
2023-03-05T09:49:50.959Z,0.60
2023-03-05T09:52:30.664Z,0.80
2023-03-05T09:55:02.794Z,0.50
2023-03-05T09:57:41.081Z,0.80
2023-03-05T10:00:31.441Z,0.90
2023-03-05T10:03:06.685Z,1.00
2023-03-05T10:05:52.446Z,1.20
2023-03-05T10:08:31.326Z,1.00
2023-03-05T10:11:08.090Z,1.00
2023-03-05T10:13:44.083Z,1.80
2023-03-05T10:16:35.199Z,1.20
2023-03-05T10:19:12.163Z,1.10
2023-03-05T10:21:51.731Z,1.30
2023-03-05T10:24:38.106Z,1.60
2023-03-05T10:27:15.880Z,1.50
2023-03-05T10:30:05.406Z,1.20
2023-03-05T10:32:48.466Z,1.70
2023-03-05T10:35:47.774Z,1.40
2023-03-05T10:38:37.401Z,1.40
2023-03-05T10:41:18.361Z,1.50
2023-03-05T10:43:57.491Z,1.50
2023-03-05T10:46:36.472Z,1.40
2023-03-05T10:49:16.814Z,1.60
2023-03-05T10:51:53.370Z,1.40
2023-03-05T10:54:29.841Z,1.80
2023-03-05T10:57:15.399Z,1.20
2023-03-05T10:59:49.014Z,1.50
2023-03-05T11:02:21.723Z,1.80
2023-03-05T11:04:54.807Z,1.60
2023-03-05T11:07:39.539Z,1.40
2023-03-05T11:10:27.535Z,1.50
2023-03-05T11:13:01.676Z,1.60
2023-03-05T11:15:33.564Z,1.40
2023-03-05T11:18:24.427Z,1.70
2023-03-05T11:21:07.809Z,1.40
2023-03-05T11:23:39.113Z,1.50
2023-03-05T11:26:23.580Z,1.10
2023-03-05T11:29:03.325Z,1.50
2023-03-05T11:31:35.374Z,1.40
2023-03-05T11:34:11.039Z,1.40
2023-03-05T11:36:44.582Z,2.00
2023-03-05T11:39:22.251Z,1.30
2023-03-05T11:41:57.585Z,1.20
2023-03-05T11:44:31.778Z,1.30
2023-03-05T11:47:08.868Z,1.30
2023-03-05T11:49:46.223Z,1.10
2023-03-05T11:52:23.090Z,1.60
2023-03-05T11:55:04.317Z,1.20
2023-03-05T11:57:44.019Z,1.50
2023-03-05T12:00:20.378Z,1.50
2023-03-05T12:02:56.756Z,1.40
2023-03-05T12:05:29.105Z,0.90
2023-03-05T12:08:03.140Z,1.30
2023-03-05T12:10:34.399Z,1.40
2023-03-05T12:13:15.381Z,1.30
2023-03-05T12:16:00.279Z,1.50
2023-03-05T12:18:41.034Z,1.30
2023-03-05T12:21:26.218Z,1.40
2023-03-05T12:24:01.610Z,1.40
2023-03-05T12:27:07.657Z,1.30
2023-03-05T12:29:45.396Z,1.40
2023-03-05T12:33:01.179Z,1.20
2023-03-05T12:35:37.716Z,1.10
2023-03-05T12:38:31.938Z,1.20
2023-03-05T12:41:43.107Z,1.10
2023-03-05T12:44:21.115Z,1.20
2023-03-05T12:47:19.440Z,1.10
2023-03-05T12:49:53.371Z,1.80
2023-03-05T12:55:24.287Z,1.20
2023-03-05T12:58:01.588Z,1.20
2023-03-05T13:00:40.398Z,1.60
2023-03-05T13:03:19.063Z,1.30
2023-03-05T13:05:57.062Z,1.50
2023-03-05T13:08:30.577Z,1.10
2023-03-05T13:11:06.265Z,1.10
2023-03-05T13:13:39.614Z,1.30
2023-03-05T13:16:20.161Z,1.30
2023-03-05T13:18:53.542Z,1.30
2023-03-05T13:21:29.278Z,1.30
2023-03-05T13:24:02.236Z,1.30
2023-03-05T13:26:38.009Z,1.30
2023-03-05T13:29:14.223Z,1.20
2023-03-05T13:31:47.366Z,1.10
2023-03-05T13:34:25.421Z,1.20
2023-03-05T13:37:00.943Z,1.10
2023-03-05T13:39:34.927Z,1.10
2023-03-05T13:42:08.851Z,0.90
2023-03-05T13:44:39.818Z,1.70
2023-03-05T13:47:19.949Z,1.10
2023-03-05T13:50:00.075Z,1.50
2023-03-05T13:52:33.332Z,1.60
2023-03-05T13:55:06.065Z,1.20
2023-03-05T13:57:40.052Z,0.90
2023-03-05T14:00:32.001Z,1.10
2023-03-05T14:03:10.800Z,1.40
2023-03-05T14:05:46.169Z,0.90
2023-03-05T14:08:23.720Z,1.00
2023-03-05T14:10:57.672Z,0.90
2023-03-05T14:13:29.208Z,1.10
2023-03-05T14:16:09.816Z,1.10
2023-03-05T14:18:53.107Z,1.00
2023-03-05T14:21:27.718Z,1.30
2023-03-05T14:23:58.695Z,1.10
2023-03-05T14:26:32.756Z,1.10
2023-03-05T14:29:13.612Z,0.80
2023-03-05T14:31:51.916Z,1.40
2023-03-05T14:34:28.438Z,1.10
2023-03-05T14:37:03.418Z,0.90
2023-03-05T14:39:43.419Z,1.00
2023-03-05T14:42:31.384Z,0.90
2023-03-05T14:45:10.864Z,0.90
2023-03-05T14:47:42.217Z,1.00
2023-03-05T14:50:19.094Z,0.90
2023-03-05T14:52:52.476Z,0.90
2023-03-05T14:55:25.548Z,1.10
2023-03-05T14:58:02.514Z,0.80
2023-03-05T15:00:33.840Z,1.00
2023-03-05T15:03:05.010Z,1.10
2023-03-05T15:05:38.105Z,1.00
2023-03-05T15:08:15.062Z,1.00
2023-03-05T15:10:46.026Z,1.00
2023-03-05T15:13:17.778Z,1.00
2023-03-05T15:15:50.174Z,1.00
2023-03-05T15:18:23.863Z,0.90
2023-03-05T15:20:54.972Z,1.90
2023-03-05T15:23:25.984Z,1.20
2023-03-05T15:25:57.031Z,0.90
2023-03-05T15:28:27.951Z,1.10
2023-03-05T15:31:00.304Z,1.10
2023-03-05T15:33:32.169Z,1.00
2023-03-05T15:36:03.926Z,0.90
2023-03-05T15:38:35.251Z,1.00
2023-03-05T15:41:06.532Z,1.20
2023-03-05T15:43:38.192Z,0.90
2023-03-05T15:46:09.638Z,1.60
2023-03-05T15:48:44.027Z,1.00
2023-03-05T15:51:15.428Z,1.20
2023-03-05T15:53:46.676Z,0.80
2023-03-05T15:56:20.980Z,1.00
2023-03-05T15:58:53.518Z,1.10
2023-03-05T16:01:24.563Z,1.10
2023-03-05T16:03:56.189Z,0.90
2023-03-05T16:06:27.676Z,1.30
2023-03-05T16:09:03.674Z,1.20
2023-03-05T16:11:38.420Z,1.00
2023-03-05T16:14:11.364Z,1.10
2023-03-05T16:16:42.689Z,1.10
2023-03-05T16:19:15.551Z,1.20
2023-03-05T16:21:47.110Z,1.30
2023-03-05T16:24:18.254Z,1.60
2023-03-05T16:26:49.117Z,1.30
2023-03-05T16:29:20.202Z,1.20
2023-03-05T16:31:51.372Z,1.30
2023-03-05T16:34:22.472Z,1.50
2023-03-05T16:36:54.508Z,1.00
2023-03-05T16:39:25.559Z,1.50
2023-03-05T16:41:57.831Z,1.30
2023-03-05T16:44:28.833Z,1.10
2023-03-05T16:46:59.827Z,1.20
2023-03-05T16:49:30.926Z,1.10
2023-03-05T16:52:16.214Z,1.10
2023-03-05T16:54:49.933Z,1.20
2023-03-05T16:57:23.743Z,1.70
2023-03-05T17:02:24.346Z,1.10
2023-03-05T17:04:56.411Z,1.20
2023-03-05T17:07:27.600Z,0.80
2023-03-05T17:09:58.698Z,1.20
2023-03-05T17:12:29.616Z,1.20
2023-03-05T17:15:00.437Z,1.50
2023-03-05T17:17:31.946Z,1.00
2023-03-05T17:20:03.044Z,1.10
2023-03-05T17:22:34.199Z,1.20
2023-03-05T17:25:06.041Z,1.60
2023-03-05T17:27:38.124Z,1.00
2023-03-05T17:30:10.796Z,1.10
2023-03-05T17:32:41.814Z,1.10
2023-03-05T17:35:20.127Z,1.00
2023-03-05T17:37:51.712Z,0.90
2023-03-05T17:40:23.788Z,1.40
2023-03-05T17:42:55.246Z,1.20
2023-03-05T17:45:26.533Z,1.10
2023-03-05T17:47:58.735Z,1.00
2023-03-05T17:50:29.927Z,0.90
2023-03-05T17:53:00.866Z,1.00
2023-03-05T17:55:31.814Z,0.80
2023-03-05T17:58:02.732Z,1.00
2023-03-05T18:00:34.483Z,1.40
2023-03-05T18:03:06.150Z,1.10
2023-03-05T18:05:37.442Z,1.10
2023-03-05T18:08:08.689Z,1.20
2023-03-05T18:10:40.003Z,1.20
2023-03-05T18:13:11.157Z,1.60
2023-03-05T18:15:47.711Z,1.00
2023-03-05T18:18:19.262Z,1.20
2023-03-05T18:20:50.441Z,0.90
2023-03-05T18:23:21.550Z,1.60
2023-03-05T18:25:52.615Z,1.10
2023-03-05T18:28:25.879Z,1.20
2023-03-05T18:30:56.913Z,1.10
2023-03-05T18:33:28.526Z,1.10
2023-03-05T18:36:00.552Z,1.40
2023-03-05T18:38:33.568Z,1.10
2023-03-05T18:41:06.370Z,1.40
2023-03-05T18:43:37.596Z,1.40
2023-03-05T18:46:08.760Z,1.40
2023-03-05T18:48:40.192Z,1.20
2023-03-05T18:51:17.493Z,1.10
2023-03-05T18:53:48.830Z,1.50
2023-03-05T18:56:19.889Z,1.30
2023-03-05T18:58:51.024Z,1.50
2023-03-05T19:01:23.914Z,1.60
2023-03-05T19:03:55.343Z,1.30
2023-03-05T19:06:26.549Z,1.20
2023-03-05T19:08:59.450Z,1.30
2023-03-05T19:11:30.989Z,1.50
2023-03-05T19:14:04.451Z,1.50
2023-03-05T19:16:40.688Z,1.70
2023-03-05T19:19:16.602Z,1.40
2023-03-05T19:21:49.062Z,1.40
2023-03-05T19:24:21.100Z,1.90
2023-03-05T19:26:55.507Z,1.50
2023-03-05T19:29:30.284Z,1.40
2023-03-05T19:32:01.299Z,1.30
2023-03-05T19:34:32.592Z,1.50
2023-03-05T19:37:03.681Z,1.60
2023-03-05T19:39:35.295Z,1.80
2023-03-05T19:42:06.808Z,1.90
2023-03-05T19:44:38.167Z,1.60
2023-03-05T19:47:09.364Z,1.40
2023-03-05T19:49:40.461Z,1.60
2023-03-05T19:52:11.454Z,1.70
2023-03-05T19:54:42.478Z,1.30
2023-03-05T19:57:13.541Z,1.50
2023-03-05T19:59:46.917Z,1.80
2023-03-05T20:02:21.757Z,1.70
2023-03-05T20:04:52.837Z,1.70
2023-03-05T20:07:23.758Z,1.30
2023-03-05T20:09:55.641Z,1.60
2023-03-05T20:12:27.235Z,1.80
2023-03-05T20:14:58.395Z,1.50
2023-03-05T20:17:29.371Z,1.90
2023-03-05T20:20:00.390Z,2.70
2023-03-05T20:22:31.502Z,1.90
2023-03-05T20:25:02.282Z,1.70
2023-03-05T20:27:34.586Z,1.70
2023-03-05T20:30:06.449Z,1.70
2023-03-05T20:32:37.905Z,1.50
2023-03-05T20:35:13.980Z,1.90
2023-03-05T20:37:50.181Z,1.80
2023-03-05T20:40:21.677Z,1.60
2023-03-05T20:42:53.067Z,1.70
2023-03-05T20:45:24.163Z,1.60
2023-03-05T20:47:55.180Z,1.50
2023-03-05T20:50:28.036Z,1.70
2023-03-05T20:53:00.433Z,1.80
2023-03-05T20:55:32.720Z,1.40
2023-03-05T20:58:03.779Z,1.70
2023-03-05T21:00:34.683Z,1.60
2023-03-05T21:03:06.242Z,1.80
2023-03-05T21:05:38.652Z,1.80
2023-03-05T21:08:09.601Z,1.80
2023-03-05T21:10:40.945Z,1.60
2023-03-05T21:13:11.891Z,1.80
2023-03-05T21:15:43.036Z,1.40
2023-03-05T21:18:14.137Z,1.70
2023-03-05T21:20:45.226Z,1.30
2023-03-05T21:23:16.170Z,1.30
2023-03-05T21:25:47.238Z,1.60
2023-03-05T21:28:18.836Z,1.30
2023-03-05T21:30:52.136Z,1.40
2023-03-05T21:33:25.737Z,1.60
2023-03-05T21:35:58.164Z,1.40
2023-03-05T21:38:30.628Z,1.30
2023-03-05T21:41:02.227Z,1.50
2023-03-05T21:43:33.619Z,1.40
2023-03-05T21:46:05.359Z,1.30
2023-03-05T21:48:36.223Z,1.50
2023-03-05T21:51:13.712Z,1.30
2023-03-05T21:53:44.789Z,1.40
2023-03-05T21:56:24.115Z,1.60
2023-03-05T21:58:55.568Z,1.40
2023-03-05T22:01:26.585Z,1.80
2023-03-05T22:03:57.534Z,1.20
2023-03-05T22:06:28.833Z,1.70
2023-03-05T22:08:59.643Z,1.40
2023-03-05T22:11:30.788Z,1.70
2023-03-05T22:14:01.734Z,2.00
2023-03-05T22:16:32.923Z,1.20
2023-03-05T22:19:04.423Z,1.20
2023-03-05T22:21:35.186Z,1.20
2023-03-05T22:24:06.724Z,0.90
2023-03-05T22:26:39.506Z,1.20
2023-03-05T22:29:11.879Z,1.20
2023-03-05T22:31:43.156Z,1.20
2023-03-05T22:34:14.106Z,1.20
2023-03-05T22:36:45.025Z,1.10
2023-03-05T22:39:15.861Z,1.00
2023-03-05T22:41:47.003Z,1.10
2023-03-05T22:44:19.376Z,1.60
2023-03-05T22:46:50.825Z,1.30
2023-03-05T22:49:21.759Z,1.20
2023-03-05T22:51:52.613Z,1.30
2023-03-05T22:54:23.757Z,1.20
2023-03-05T22:56:54.617Z,1.20
2023-03-05T22:59:25.536Z,1.40
2023-03-05T23:01:56.377Z,1.60
2023-03-05T23:04:40.325Z,1.10
2023-03-05T23:07:11.264Z,1.40
2023-03-05T23:09:42.019Z,1.10
2023-03-05T23:12:13.630Z,1.40
2023-03-05T23:14:44.507Z,0.90
2023-03-05T23:17:15.685Z,1.20
2023-03-05T23:19:46.471Z,1.70
2023-03-05T23:22:17.343Z,1.00
2023-03-05T23:24:48.272Z,1.10
2023-03-05T23:27:20.137Z,1.10
2023-03-05T23:29:59.382Z,1.20
2023-03-05T23:32:32.192Z,1.00
2023-03-05T23:35:03.184Z,1.00
2023-03-05T23:37:34.071Z,1.10
2023-03-05T23:40:05.379Z,1.10
2023-03-05T23:42:36.121Z,1.40
2023-03-05T23:45:10.485Z,1.10
2023-03-05T23:47:41.922Z,1.20
2023-03-05T23:50:16.642Z,1.20
2023-03-05T23:52:48.209Z,1.10
2023-03-05T23:55:21.036Z,1.30
2023-03-05T23:57:52.149Z,1.10
